Florence, Italy
Current Conditions -  °F | °C
As of 2:50 PM on Saturday 25 Oct 2014 (Local Time) from LIRQ Reporting Station
Few Clouds Few Clouds  
Wind Chill: 66°   Ceiling: Unl
Heat Index: 66°   Visibility: 6mi
Dew Point: 45°   Wind: 13mph
Humidity: 46%   Direction: 20°NNE
Pressure: 30.09"   Gusts: NA
Location:  43.77°N, 11.26°E
Report Text: LIRQ 251250Z 02011KT 9999 FEW050 19/07 Q1019
Loading
Personal Weather Stations






























Interactive Weather Map New forecast layout! Learn more

10-Day Weather Forecast

Advertisements
Track Severe Weather on mobile